sensor_id;sensor_type;location;lat;lon;timestamp;temperature;humidity
6758;DHT22;3416;53.074;8.822;2022-09-13T00:01:58;19.10;99.90
6758;DHT22;3416;53.074;8.822;2022-09-13T00:04:25;19.10;99.90
6758;DHT22;3416;53.074;8.822;2022-09-13T00:06:52;19.10;99.90
6758;DHT22;3416;53.074;8.822;2022-09-13T00:09:20;19.00;99.90
6758;DHT22;3416;53.074;8.822;2022-09-13T00:11:47;19.00;99.90
6758;DHT22;3416;53.074;8.822;2022-09-13T00:14:14;19.00;99.90
6758;DHT22;3416;53.074;8.822;2022-09-13T00:16:41;19.00;99.90
6758;DHT22;3416;53.074;8.822;2022-09-13T00:19:08;19.00;99.90
6758;DHT22;3416;53.074;8.822;2022-09-13T00:21:35;19.00;99.90
6758;DHT22;3416;53.074;8.822;2022-09-13T00:24:02;18.90;99.90
6758;DHT22;3416;53.074;8.822;2022-09-13T00:26:30;18.90;99.90
6758;DHT22;3416;53.074;8.822;2022-09-13T00:28:57;18.90;99.90
6758;DHT22;3416;53.074;8.822;2022-09-13T00:31:27;19.00;99.90
6758;DHT22;3416;53.074;8.822;2022-09-13T00:33:54;19.00;99.90
6758;DHT22;3416;53.074;8.822;2022-09-13T00:36:23;18.90;99.90
6758;DHT22;3416;53.074;8.822;2022-09-13T00:38:50;19.00;99.90
6758;DHT22;3416;53.074;8.822;2022-09-13T00:41:18;18.90;99.90
6758;DHT22;3416;53.074;8.822;2022-09-13T00:43:49;18.90;99.90
6758;DHT22;3416;53.074;8.822;2022-09-13T00:46:21;18.80;99.90
6758;DHT22;3416;53.074;8.822;2022-09-13T00:48:50;18.60;99.90
6758;DHT22;3416;53.074;8.822;2022-09-13T00:51:19;18.60;99.90
6758;DHT22;3416;53.074;8.822;2022-09-13T00:53:49;18.60;99.90
6758;DHT22;3416;53.074;8.822;2022-09-13T00:56:20;18.50;99.90
6758;DHT22;3416;53.074;8.822;2022-09-13T00:58:52;18.50;99.90
6758;DHT22;3416;53.074;8.822;2022-09-13T01:01:22;18.30;99.90
6758;DHT22;3416;53.074;8.822;2022-09-13T01:03:51;18.30;99.90
6758;DHT22;3416;53.074;8.822;2022-09-13T01:06:21;18.30;99.90
6758;DHT22;3416;53.074;8.822;2022-09-13T01:08:51;18.30;99.90
6758;DHT22;3416;53.074;8.822;2022-09-13T01:11:25;18.10;99.90
6758;DHT22;3416;53.074;8.822;2022-09-13T01:13:56;17.90;99.90
6758;DHT22;3416;53.074;8.822;2022-09-13T01:16:24;17.80;99.90
6758;DHT22;3416;53.074;8.822;2022-09-13T01:18:51;17.80;99.90
6758;DHT22;3416;53.074;8.822;2022-09-13T01:27:36;17.70;99.90
6758;DHT22;3416;53.074;8.822;2022-09-13T01:30:15;17.70;99.90
6758;DHT22;3416;53.074;8.822;2022-09-13T01:36:01;17.60;99.90
6758;DHT22;3416;53.074;8.822;2022-09-13T01:38:44;17.60;99.90
6758;DHT22;3416;53.074;8.822;2022-09-13T01:41:33;17.60;99.90
6758;DHT22;3416;53.074;8.822;2022-09-13T01:44:07;17.60;99.90
6758;DHT22;3416;53.074;8.822;2022-09-13T01:46:45;17.50;99.90
6758;DHT22;3416;53.074;8.822;2022-09-13T01:49:19;17.50;99.90
6758;DHT22;3416;53.074;8.822;2022-09-13T01:51:50;17.50;99.90
6758;DHT22;3416;53.074;8.822;2022-09-13T01:54:27;17.50;99.90
6758;DHT22;3416;53.074;8.822;2022-09-13T01:56:59;17.50;99.90
6758;DHT22;3416;53.074;8.822;2022-09-13T01:59:35;17.50;99.90
6758;DHT22;3416;53.074;8.822;2022-09-13T02:02:11;17.50;99.90
6758;DHT22;3416;53.074;8.822;2022-09-13T02:04:42;17.60;99.90
6758;DHT22;3416;53.074;8.822;2022-09-13T02:07:16;17.60;99.90
6758;DHT22;3416;53.074;8.822;2022-09-13T02:09:47;17.60;99.90
6758;DHT22;3416;53.074;8.822;2022-09-13T02:12:18;17.50;99.90
6758;DHT22;3416;53.074;8.822;2022-09-13T02:14:53;17.50;99.90
6758;DHT22;3416;53.074;8.822;2022-09-13T02:17:26;17.40;99.90
6758;DHT22;3416;53.074;8.822;2022-09-13T02:19:56;17.40;99.90
6758;DHT22;3416;53.074;8.822;2022-09-13T02:22:30;17.30;99.90
6758;DHT22;3416;53.074;8.822;2022-09-13T02:25:00;17.30;99.90
6758;DHT22;3416;53.074;8.822;2022-09-13T02:27:32;17.40;99.90
6758;DHT22;3416;53.074;8.822;2022-09-13T02:30:02;17.30;99.90
6758;DHT22;3416;53.074;8.822;2022-09-13T02:32:34;17.20;99.90
6758;DHT22;3416;53.074;8.822;2022-09-13T02:35:05;17.30;99.90
6758;DHT22;3416;53.074;8.822;2022-09-13T02:37:37;17.20;99.90
6758;DHT22;3416;53.074;8.822;2022-09-13T02:40:09;17.20;99.90
6758;DHT22;3416;53.074;8.822;2022-09-13T02:42:41;17.20;99.90
6758;DHT22;3416;53.074;8.822;2022-09-13T02:45:11;17.20;99.90
6758;DHT22;3416;53.074;8.822;2022-09-13T02:47:46;17.20;99.90
6758;DHT22;3416;53.074;8.822;2022-09-13T02:50:24;17.10;99.90
6758;DHT22;3416;53.074;8.822;2022-09-13T02:53:02;17.10;99.90
6758;DHT22;3416;53.074;8.822;2022-09-13T02:55:37;17.10;99.90
6758;DHT22;3416;53.074;8.822;2022-09-13T02:58:09;17.20;99.90
6758;DHT22;3416;53.074;8.822;2022-09-13T03:00:38;17.20;99.90
6758;DHT22;3416;53.074;8.822;2022-09-13T03:03:10;17.30;99.90
6758;DHT22;3416;53.074;8.822;2022-09-13T03:05:38;17.30;99.90
6758;DHT22;3416;53.074;8.822;2022-09-13T03:08:08;17.30;99.90
6758;DHT22;3416;53.074;8.822;2022-09-13T03:10:47;17.30;99.90
6758;DHT22;3416;53.074;8.822;2022-09-13T03:13:33;17.30;99.90
6758;DHT22;3416;53.074;8.822;2022-09-13T03:16:12;17.30;99.90
6758;DHT22;3416;53.074;8.822;2022-09-13T03:18:51;17.30;99.90
6758;DHT22;3416;53.074;8.822;2022-09-13T03:21:38;17.20;99.90
6758;DHT22;3416;53.074;8.822;2022-09-13T03:24:16;17.20;99.90
6758;DHT22;3416;53.074;8.822;2022-09-13T03:26:56;17.10;99.90
6758;DHT22;3416;53.074;8.822;2022-09-13T03:29:40;17.10;99.90
6758;DHT22;3416;53.074;8.822;2022-09-13T03:32:19;17.00;99.90
6758;DHT22;3416;53.074;8.822;2022-09-13T03:34:55;17.10;99.90
6758;DHT22;3416;53.074;8.822;2022-09-13T03:37:43;17.10;99.90
6758;DHT22;3416;53.074;8.822;2022-09-13T03:40:15;17.10;99.90
6758;DHT22;3416;53.074;8.822;2022-09-13T03:42:47;17.10;99.90
6758;DHT22;3416;53.074;8.822;2022-09-13T03:45:18;17.10;99.90
6758;DHT22;3416;53.074;8.822;2022-09-13T03:47:49;17.10;99.90
6758;DHT22;3416;53.074;8.822;2022-09-13T03:50:20;17.10;99.90
6758;DHT22;3416;53.074;8.822;2022-09-13T03:52:51;17.00;99.90
6758;DHT22;3416;53.074;8.822;2022-09-13T03:55:20;17.00;99.90
6758;DHT22;3416;53.074;8.822;2022-09-13T03:57:47;16.90;99.90
6758;DHT22;3416;53.074;8.822;2022-09-13T04:00:15;17.00;99.90
6758;DHT22;3416;53.074;8.822;2022-09-13T04:02:42;17.00;99.90
6758;DHT22;3416;53.074;8.822;2022-09-13T04:05:09;17.00;99.90
6758;DHT22;3416;53.074;8.822;2022-09-13T04:07:38;17.00;99.90
6758;DHT22;3416;53.074;8.822;2022-09-13T04:10:06;17.00;99.90
6758;DHT22;3416;53.074;8.822;2022-09-13T04:12:33;17.10;99.90
6758;DHT22;3416;53.074;8.822;2022-09-13T04:15:00;17.10;99.90
6758;DHT22;3416;53.074;8.822;2022-09-13T04:17:27;17.10;99.90
6758;DHT22;3416;53.074;8.822;2022-09-13T04:19:54;17.10;99.90
6758;DHT22;3416;53.074;8.822;2022-09-13T04:22:21;17.10;99.90
6758;DHT22;3416;53.074;8.822;2022-09-13T04:24:49;17.10;99.90
6758;DHT22;3416;53.074;8.822;2022-09-13T04:27:17;17.10;99.90
6758;DHT22;3416;53.074;8.822;2022-09-13T04:29:44;17.20;99.90
6758;DHT22;3416;53.074;8.822;2022-09-13T04:32:11;17.20;99.90
6758;DHT22;3416;53.074;8.822;2022-09-13T04:34:38;17.20;99.90
6758;DHT22;3416;53.074;8.822;2022-09-13T04:37:05;17.20;99.90
6758;DHT22;3416;53.074;8.822;2022-09-13T04:39:32;17.20;99.90
6758;DHT22;3416;53.074;8.822;2022-09-13T04:42:01;17.20;99.90
6758;DHT22;3416;53.074;8.822;2022-09-13T04:44:28;17.20;99.90
6758;DHT22;3416;53.074;8.822;2022-09-13T04:46:56;17.20;99.90
6758;DHT22;3416;53.074;8.822;2022-09-13T04:49:24;17.20;99.90
6758;DHT22;3416;53.074;8.822;2022-09-13T04:51:51;17.20;99.90
6758;DHT22;3416;53.074;8.822;2022-09-13T04:54:31;17.20;99.90
6758;DHT22;3416;53.074;8.822;2022-09-13T04:56:58;17.20;99.90
6758;DHT22;3416;53.074;8.822;2022-09-13T04:59:27;17.20;99.90
6758;DHT22;3416;53.074;8.822;2022-09-13T05:01:54;17.20;99.90
6758;DHT22;3416;53.074;8.822;2022-09-13T05:04:20;17.20;99.90
6758;DHT22;3416;53.074;8.822;2022-09-13T05:06:47;17.10;99.90
6758;DHT22;3416;53.074;8.822;2022-09-13T05:09:14;17.20;99.90
6758;DHT22;3416;53.074;8.822;2022-09-13T05:11:44;17.20;99.90
6758;DHT22;3416;53.074;8.822;2022-09-13T05:14:11;17.10;99.90
6758;DHT22;3416;53.074;8.822;2022-09-13T05:16:40;17.20;99.90
6758;DHT22;3416;53.074;8.822;2022-09-13T05:19:07;17.20;99.90
6758;DHT22;3416;53.074;8.822;2022-09-13T05:21:34;17.30;99.90
6758;DHT22;3416;53.074;8.822;2022-09-13T05:24:01;17.30;99.90
6758;DHT22;3416;53.074;8.822;2022-09-13T05:26:29;17.30;99.90
6758;DHT22;3416;53.074;8.822;2022-09-13T05:28:56;17.40;99.90
6758;DHT22;3416;53.074;8.822;2022-09-13T05:31:25;17.50;99.90
6758;DHT22;3416;53.074;8.822;2022-09-13T05:33:56;17.50;99.90
6758;DHT22;3416;53.074;8.822;2022-09-13T05:36:25;17.50;99.90
6758;DHT22;3416;53.074;8.822;2022-09-13T05:38:52;17.50;99.90
6758;DHT22;3416;53.074;8.822;2022-09-13T05:41:19;17.40;99.90
6758;DHT22;3416;53.074;8.822;2022-09-13T05:43:46;17.50;99.90
6758;DHT22;3416;53.074;8.822;2022-09-13T05:46:14;17.50;99.90
6758;DHT22;3416;53.074;8.822;2022-09-13T05:48:42;17.40;99.90
6758;DHT22;3416;53.074;8.822;2022-09-13T05:51:13;17.40;99.90
6758;DHT22;3416;53.074;8.822;2022-09-13T05:53:41;17.40;99.90
6758;DHT22;3416;53.074;8.822;2022-09-13T05:56:10;17.50;99.90
6758;DHT22;3416;53.074;8.822;2022-09-13T05:58:38;17.50;99.90
6758;DHT22;3416;53.074;8.822;2022-09-13T06:01:06;17.50;99.90
6758;DHT22;3416;53.074;8.822;2022-09-13T06:03:33;17.50;99.90
6758;DHT22;3416;53.074;8.822;2022-09-13T06:06:04;17.50;99.90
6758;DHT22;3416;53.074;8.822;2022-09-13T06:08:33;17.50;99.90
6758;DHT22;3416;53.074;8.822;2022-09-13T06:11:03;17.60;99.90
6758;DHT22;3416;53.074;8.822;2022-09-13T06:13:30;17.60;99.90
6758;DHT22;3416;53.074;8.822;2022-09-13T06:16:00;17.60;99.90
6758;DHT22;3416;53.074;8.822;2022-09-13T06:18:27;17.60;99.90
6758;DHT22;3416;53.074;8.822;2022-09-13T06:20:57;17.50;99.90
6758;DHT22;3416;53.074;8.822;2022-09-13T06:23:25;17.60;99.90
6758;DHT22;3416;53.074;8.822;2022-09-13T06:26:00;17.60;99.90
6758;DHT22;3416;53.074;8.822;2022-09-13T06:28:28;17.60;99.90
6758;DHT22;3416;53.074;8.822;2022-09-13T06:30:59;17.70;99.90
6758;DHT22;3416;53.074;8.822;2022-09-13T06:33:27;17.70;99.90
6758;DHT22;3416;53.074;8.822;2022-09-13T06:35:54;17.70;99.90
6758;DHT22;3416;53.074;8.822;2022-09-13T06:38:21;17.70;99.90
6758;DHT22;3416;53.074;8.822;2022-09-13T06:40:57;17.70;99.90
6758;DHT22;3416;53.074;8.822;2022-09-13T06:43:25;17.70;99.90
6758;DHT22;3416;53.074;8.822;2022-09-13T06:45:52;17.90;99.90
6758;DHT22;3416;53.074;8.822;2022-09-13T06:48:19;17.90;99.90
6758;DHT22;3416;53.074;8.822;2022-09-13T06:50:47;18.00;99.90
6758;DHT22;3416;53.074;8.822;2022-09-13T06:53:14;18.10;99.90
6758;DHT22;3416;53.074;8.822;2022-09-13T06:55:41;18.10;99.90
6758;DHT22;3416;53.074;8.822;2022-09-13T06:58:11;18.30;99.90
6758;DHT22;3416;53.074;8.822;2022-09-13T07:00:39;18.30;99.90
6758;DHT22;3416;53.074;8.822;2022-09-13T07:03:06;18.30;99.90
6758;DHT22;3416;53.074;8.822;2022-09-13T07:05:33;18.40;99.90
6758;DHT22;3416;53.074;8.822;2022-09-13T07:08:00;18.50;99.90
6758;DHT22;3416;53.074;8.822;2022-09-13T07:10:27;18.60;99.90
6758;DHT22;3416;53.074;8.822;2022-09-13T07:12:54;18.70;99.90
6758;DHT22;3416;53.074;8.822;2022-09-13T07:15:21;18.90;99.90
6758;DHT22;3416;53.074;8.822;2022-09-13T07:17:49;19.00;99.90
6758;DHT22;3416;53.074;8.822;2022-09-13T07:20:16;19.10;99.90
6758;DHT22;3416;53.074;8.822;2022-09-13T07:22:43;19.30;99.90
6758;DHT22;3416;53.074;8.822;2022-09-13T07:25:10;19.40;99.90
6758;DHT22;3416;53.074;8.822;2022-09-13T07:27:37;19.50;99.90
6758;DHT22;3416;53.074;8.822;2022-09-13T07:30:06;19.70;99.90
6758;DHT22;3416;53.074;8.822;2022-09-13T07:32:34;19.70;99.90
6758;DHT22;3416;53.074;8.822;2022-09-13T07:35:02;19.70;99.90
6758;DHT22;3416;53.074;8.822;2022-09-13T07:37:31;19.80;99.90
6758;DHT22;3416;53.074;8.822;2022-09-13T07:39:59;19.90;99.90
6758;DHT22;3416;53.074;8.822;2022-09-13T07:42:27;19.90;99.90
6758;DHT22;3416;53.074;8.822;2022-09-13T07:44:54;19.90;99.90
6758;DHT22;3416;53.074;8.822;2022-09-13T07:47:21;19.80;99.90
6758;DHT22;3416;53.074;8.822;2022-09-13T07:49:47;19.90;99.90
6758;DHT22;3416;53.074;8.822;2022-09-13T07:52:16;20.00;99.90
6758;DHT22;3416;53.074;8.822;2022-09-13T07:54:43;20.10;99.90
6758;DHT22;3416;53.074;8.822;2022-09-13T07:57:11;20.10;99.90
6758;DHT22;3416;53.074;8.822;2022-09-13T07:59:38;20.20;99.90
6758;DHT22;3416;53.074;8.822;2022-09-13T08:02:05;20.20;99.90
6758;DHT22;3416;53.074;8.822;2022-09-13T08:04:32;20.20;99.90
6758;DHT22;3416;53.074;8.822;2022-09-13T08:06:59;20.10;99.90
6758;DHT22;3416;53.074;8.822;2022-09-13T08:09:27;19.90;99.90
6758;DHT22;3416;53.074;8.822;2022-09-13T08:11:54;19.80;99.90
6758;DHT22;3416;53.074;8.822;2022-09-13T08:14:21;19.80;99.90
6758;DHT22;3416;53.074;8.822;2022-09-13T08:16:49;20.00;99.90
6758;DHT22;3416;53.074;8.822;2022-09-13T08:19:17;20.20;99.90
6758;DHT22;3416;53.074;8.822;2022-09-13T08:21:45;20.20;99.90
6758;DHT22;3416;53.074;8.822;2022-09-13T08:24:14;20.20;99.90
6758;DHT22;3416;53.074;8.822;2022-09-13T08:26:43;20.10;99.90
6758;DHT22;3416;53.074;8.822;2022-09-13T08:29:11;19.90;99.90
6758;DHT22;3416;53.074;8.822;2022-09-13T08:31:38;19.80;99.90
6758;DHT22;3416;53.074;8.822;2022-09-13T08:34:08;19.70;99.90
6758;DHT22;3416;53.074;8.822;2022-09-13T08:36:36;19.70;99.90
6758;DHT22;3416;53.074;8.822;2022-09-13T08:39:03;19.60;99.90
6758;DHT22;3416;53.074;8.822;2022-09-13T08:44:33;19.80;99.90
6758;DHT22;3416;53.074;8.822;2022-09-13T08:47:17;19.70;99.90
6758;DHT22;3416;53.074;8.822;2022-09-13T08:49:50;19.50;99.90
6758;DHT22;3416;53.074;8.822;2022-09-13T08:52:27;19.40;99.90
6758;DHT22;3416;53.074;8.822;2022-09-13T08:54:58;19.30;99.90
6758;DHT22;3416;53.074;8.822;2022-09-13T08:57:33;19.40;99.90
6758;DHT22;3416;53.074;8.822;2022-09-13T09:00:11;19.50;99.90
6758;DHT22;3416;53.074;8.822;2022-09-13T09:03:07;19.50;99.90
6758;DHT22;3416;53.074;8.822;2022-09-13T09:05:43;19.60;99.90
6758;DHT22;3416;53.074;8.822;2022-09-13T09:08:22;19.80;99.90
6758;DHT22;3416;53.074;8.822;2022-09-13T09:10:55;20.10;99.90
6758;DHT22;3416;53.074;8.822;2022-09-13T09:13:29;20.30;99.90
6758;DHT22;3416;53.074;8.822;2022-09-13T09:16:01;20.60;99.90
6758;DHT22;3416;53.074;8.822;2022-09-13T09:18:33;20.90;99.90
6758;DHT22;3416;53.074;8.822;2022-09-13T09:21:02;21.40;99.90
6758;DHT22;3416;53.074;8.822;2022-09-13T09:23:37;22.80;99.90
6758;DHT22;3416;53.074;8.822;2022-09-13T09:26:15;24.60;99.90
6758;DHT22;3416;53.074;8.822;2022-09-13T09:28:44;25.80;99.90
6758;DHT22;3416;53.074;8.822;2022-09-13T09:31:26;26.80;99.90
6758;DHT22;3416;53.074;8.822;2022-09-13T09:34:08;28.20;99.90
6758;DHT22;3416;53.074;8.822;2022-09-13T09:36:43;29.40;98.20
6758;DHT22;3416;53.074;8.822;2022-09-13T09:39:12;29.90;95.00
6758;DHT22;3416;53.074;8.822;2022-09-13T09:41:42;29.60;94.80
6758;DHT22;3416;53.074;8.822;2022-09-13T09:44:20;28.90;95.30
6758;DHT22;3416;53.074;8.822;2022-09-13T09:46:54;27.90;97.00
6758;DHT22;3416;53.074;8.822;2022-09-13T09:49:36;26.80;98.60
6758;DHT22;3416;53.074;8.822;2022-09-13T09:52:21;25.80;99.90
6758;DHT22;3416;53.074;8.822;2022-09-13T09:54:52;25.00;99.90
6758;DHT22;3416;53.074;8.822;2022-09-13T09:57:51;24.70;99.90
6758;DHT22;3416;53.074;8.822;2022-09-13T10:00:19;24.60;99.90
6758;DHT22;3416;53.074;8.822;2022-09-13T10:02:50;24.10;99.90
6758;DHT22;3416;53.074;8.822;2022-09-13T10:05:19;24.00;99.90
6758;DHT22;3416;53.074;8.822;2022-09-13T10:07:55;24.70;99.90
6758;DHT22;3416;53.074;8.822;2022-09-13T10:10:26;25.80;99.90
6758;DHT22;3416;53.074;8.822;2022-09-13T10:12:57;26.10;97.40
6758;DHT22;3416;53.074;8.822;2022-09-13T10:15:26;26.70;95.10
6758;DHT22;3416;53.074;8.822;2022-09-13T10:18:14;27.70;94.50
6758;DHT22;3416;53.074;8.822;2022-09-13T10:20:42;28.40;91.60
6758;DHT22;3416;53.074;8.822;2022-09-13T10:23:25;27.70;91.60
6758;DHT22;3416;53.074;8.822;2022-09-13T10:26:11;27.00;92.60
6758;DHT22;3416;53.074;8.822;2022-09-13T10:28:44;27.20;93.00
6758;DHT22;3416;53.074;8.822;2022-09-13T10:31:14;27.90;91.50
6758;DHT22;3416;53.074;8.822;2022-09-13T10:33:52;28.00;90.50
6758;DHT22;3416;53.074;8.822;2022-09-13T10:36:23;27.90;89.90
6758;DHT22;3416;53.074;8.822;2022-09-13T10:38:57;27.60;90.30
6758;DHT22;3416;53.074;8.822;2022-09-13T10:41:26;27.30;91.20
6758;DHT22;3416;53.074;8.822;2022-09-13T10:43:59;27.10;91.90
6758;DHT22;3416;53.074;8.822;2022-09-13T10:46:29;26.80;91.70
6758;DHT22;3416;53.074;8.822;2022-09-13T10:48:59;26.60;91.50
6758;DHT22;3416;53.074;8.822;2022-09-13T10:51:34;26.60;91.40
6758;DHT22;3416;53.074;8.822;2022-09-13T10:54:08;25.60;91.90
6758;DHT22;3416;53.074;8.822;2022-09-13T10:56:37;25.00;93.40
6758;DHT22;3416;53.074;8.822;2022-09-13T10:59:15;25.20;93.10
6758;DHT22;3416;53.074;8.822;2022-09-13T11:01:53;25.30;92.80
6758;DHT22;3416;53.074;8.822;2022-09-13T11:04:39;25.60;91.60
6758;DHT22;3416;53.074;8.822;2022-09-13T11:07:30;25.90;92.00
6758;DHT22;3416;53.074;8.822;2022-09-13T11:10:03;26.20;91.10
6758;DHT22;3416;53.074;8.822;2022-09-13T11:12:38;26.30;90.60
6758;DHT22;3416;53.074;8.822;2022-09-13T11:15:16;26.30;90.80
6758;DHT22;3416;53.074;8.822;2022-09-13T11:18:18;26.30;89.70
6758;DHT22;3416;53.074;8.822;2022-09-13T11:20:56;26.10;90.10
6758;DHT22;3416;53.074;8.822;2022-09-13T11:23:43;25.30;90.80
6758;DHT22;3416;53.074;8.822;2022-09-13T11:26:29;24.70;91.90
6758;DHT22;3416;53.074;8.822;2022-09-13T11:29:10;24.70;92.40
6758;DHT22;3416;53.074;8.822;2022-09-13T11:31:55;24.90;92.20
6758;DHT22;3416;53.074;8.822;2022-09-13T11:34:47;24.80;91.70
6758;DHT22;3416;53.074;8.822;2022-09-13T11:37:36;24.90;91.50
6758;DHT22;3416;53.074;8.822;2022-09-13T11:40:24;24.80;90.30
6758;DHT22;3416;53.074;8.822;2022-09-13T11:43:03;24.90;89.90
6758;DHT22;3416;53.074;8.822;2022-09-13T11:45:39;24.70;90.30
6758;DHT22;3416;53.074;8.822;2022-09-13T11:48:28;24.70;90.70
6758;DHT22;3416;53.074;8.822;2022-09-13T11:51:04;24.60;90.20
6758;DHT22;3416;53.074;8.822;2022-09-13T11:53:52;24.50;90.20
6758;DHT22;3416;53.074;8.822;2022-09-13T11:56:25;24.40;90.70
6758;DHT22;3416;53.074;8.822;2022-09-13T11:59:07;24.40;91.10
6758;DHT22;3416;53.074;8.822;2022-09-13T12:01:38;24.50;90.20
6758;DHT22;3416;53.074;8.822;2022-09-13T12:04:11;24.60;90.00
6758;DHT22;3416;53.074;8.822;2022-09-13T12:06:45;24.50;90.00
6758;DHT22;3416;53.074;8.822;2022-09-13T12:09:20;24.50;90.20
6758;DHT22;3416;53.074;8.822;2022-09-13T12:11:51;24.40;89.80
6758;DHT22;3416;53.074;8.822;2022-09-13T12:14:22;24.30;89.20
6758;DHT22;3416;53.074;8.822;2022-09-13T12:16:52;24.30;90.10
6758;DHT22;3416;53.074;8.822;2022-09-13T12:19:24;24.30;87.80
6758;DHT22;3416;53.074;8.822;2022-09-13T12:21:56;24.40;88.80
6758;DHT22;3416;53.074;8.822;2022-09-13T12:24:33;24.60;89.10
6758;DHT22;3416;53.074;8.822;2022-09-13T12:27:04;24.60;88.50
6758;DHT22;3416;53.074;8.822;2022-09-13T12:29:39;24.60;87.30
6758;DHT22;3416;53.074;8.822;2022-09-13T12:32:10;24.60;86.20
6758;DHT22;3416;53.074;8.822;2022-09-13T12:34:42;24.60;87.10
6758;DHT22;3416;53.074;8.822;2022-09-13T12:37:37;24.40;87.10
6758;DHT22;3416;53.074;8.822;2022-09-13T12:40:38;24.60;87.30
6758;DHT22;3416;53.074;8.822;2022-09-13T12:43:42;24.60;87.50
6758;DHT22;3416;53.074;8.822;2022-09-13T12:46:36;24.80;88.00
6758;DHT22;3416;53.074;8.822;2022-09-13T12:49:24;24.90;88.30
6758;DHT22;3416;53.074;8.822;2022-09-13T12:58:13;25.10;85.30
6758;DHT22;3416;53.074;8.822;2022-09-13T13:00:47;25.00;84.50
6758;DHT22;3416;53.074;8.822;2022-09-13T13:03:29;25.00;85.80
6758;DHT22;3416;53.074;8.822;2022-09-13T13:06:07;24.80;86.50
6758;DHT22;3416;53.074;8.822;2022-09-13T13:08:37;24.50;87.00
6758;DHT22;3416;53.074;8.822;2022-09-13T13:11:07;24.30;87.90
6758;DHT22;3416;53.074;8.822;2022-09-13T13:13:38;24.20;88.70
6758;DHT22;3416;53.074;8.822;2022-09-13T13:16:23;23.80;89.00
6758;DHT22;3416;53.074;8.822;2022-09-13T13:18:51;23.50;90.00
6758;DHT22;3416;53.074;8.822;2022-09-13T13:21:31;23.40;89.80
6758;DHT22;3416;53.074;8.822;2022-09-13T13:27:39;23.30;89.70
6758;DHT22;3416;53.074;8.822;2022-09-13T13:30:48;23.60;89.40
6758;DHT22;3416;53.074;8.822;2022-09-13T13:33:21;23.70;88.30
6758;DHT22;3416;53.074;8.822;2022-09-13T13:35:50;23.90;88.00
6758;DHT22;3416;53.074;8.822;2022-09-13T13:38:48;23.90;88.20
6758;DHT22;3416;53.074;8.822;2022-09-13T13:41:46;23.80;87.70
6758;DHT22;3416;53.074;8.822;2022-09-13T13:44:55;23.70;87.40
6758;DHT22;3416;53.074;8.822;2022-09-13T13:47:53;23.80;87.10
6758;DHT22;3416;53.074;8.822;2022-09-13T13:50:21;23.80;86.40
6758;DHT22;3416;53.074;8.822;2022-09-13T13:52:55;23.90;86.90
6758;DHT22;3416;53.074;8.822;2022-09-13T13:55:41;23.80;86.60
6758;DHT22;3416;53.074;8.822;2022-09-13T13:58:46;23.80;87.30
6758;DHT22;3416;53.074;8.822;2022-09-13T14:01:20;23.60;88.20
6758;DHT22;3416;53.074;8.822;2022-09-13T14:04:09;23.50;88.70
6758;DHT22;3416;53.074;8.822;2022-09-13T14:06:51;23.30;88.00
6758;DHT22;3416;53.074;8.822;2022-09-13T14:09:29;23.20;88.50
6758;DHT22;3416;53.074;8.822;2022-09-13T14:12:13;23.10;88.70
6758;DHT22;3416;53.074;8.822;2022-09-13T14:14:54;23.00;88.80
6758;DHT22;3416;53.074;8.822;2022-09-13T14:20:17;23.00;90.50
6758;DHT22;3416;53.074;8.822;2022-09-13T14:22:46;22.80;90.70
6758;DHT22;3416;53.074;8.822;2022-09-13T14:25:22;22.70;91.00
6758;DHT22;3416;53.074;8.822;2022-09-13T14:27:51;22.70;90.50
6758;DHT22;3416;53.074;8.822;2022-09-13T14:30:22;22.70;90.30
6758;DHT22;3416;53.074;8.822;2022-09-13T14:32:53;22.60;90.10
6758;DHT22;3416;53.074;8.822;2022-09-13T14:35:28;22.50;90.40
6758;DHT22;3416;53.074;8.822;2022-09-13T14:38:11;22.50;90.50
6758;DHT22;3416;53.074;8.822;2022-09-13T14:40:39;22.50;90.80
6758;DHT22;3416;53.074;8.822;2022-09-13T14:43:13;22.50;90.70
6758;DHT22;3416;53.074;8.822;2022-09-13T14:45:44;22.50;91.40
6758;DHT22;3416;53.074;8.822;2022-09-13T14:48:16;22.50;91.70
6758;DHT22;3416;53.074;8.822;2022-09-13T14:50:50;22.50;91.50
6758;DHT22;3416;53.074;8.822;2022-09-13T14:53:24;22.60;91.50
6758;DHT22;3416;53.074;8.822;2022-09-13T14:55:54;22.70;91.00
6758;DHT22;3416;53.074;8.822;2022-09-13T14:58:27;22.80;90.80
6758;DHT22;3416;53.074;8.822;2022-09-13T15:01:03;22.80;90.40
6758;DHT22;3416;53.074;8.822;2022-09-13T15:03:32;22.80;89.90
6758;DHT22;3416;53.074;8.822;2022-09-13T15:06:02;22.90;89.10
6758;DHT22;3416;53.074;8.822;2022-09-13T15:08:47;23.00;88.40
6758;DHT22;3416;53.074;8.822;2022-09-13T15:11:30;22.90;88.60
6758;DHT22;3416;53.074;8.822;2022-09-13T15:14:15;23.00;90.40
6758;DHT22;3416;53.074;8.822;2022-09-13T15:16:49;23.00;91.50
6758;DHT22;3416;53.074;8.822;2022-09-13T15:19:35;22.90;92.30
6758;DHT22;3416;53.074;8.822;2022-09-13T15:22:19;22.90;92.60
6758;DHT22;3416;53.074;8.822;2022-09-13T15:24:49;22.90;92.70
6758;DHT22;3416;53.074;8.822;2022-09-13T15:27:23;22.70;93.50
6758;DHT22;3416;53.074;8.822;2022-09-13T15:29:52;22.60;94.30
6758;DHT22;3416;53.074;8.822;2022-09-13T15:32:21;22.50;94.80
6758;DHT22;3416;53.074;8.822;2022-09-13T15:34:49;22.40;95.00
6758;DHT22;3416;53.074;8.822;2022-09-13T15:37:28;22.40;95.50
6758;DHT22;3416;53.074;8.822;2022-09-13T15:40:17;22.40;95.20
6758;DHT22;3416;53.074;8.822;2022-09-13T15:42:46;22.20;95.80
6758;DHT22;3416;53.074;8.822;2022-09-13T15:45:13;22.20;96.00
6758;DHT22;3416;53.074;8.822;2022-09-13T15:47:43;22.20;96.40
6758;DHT22;3416;53.074;8.822;2022-09-13T15:50:19;22.10;96.20
6758;DHT22;3416;53.074;8.822;2022-09-13T15:52:47;22.00;96.20
6758;DHT22;3416;53.074;8.822;2022-09-13T15:55:14;21.90;96.50
6758;DHT22;3416;53.074;8.822;2022-09-13T15:57:42;21.80;96.80
6758;DHT22;3416;53.074;8.822;2022-09-13T16:00:15;21.70;96.90
6758;DHT22;3416;53.074;8.822;2022-09-13T16:02:42;21.60;97.10
6758;DHT22;3416;53.074;8.822;2022-09-13T16:05:10;21.50;97.00
6758;DHT22;3416;53.074;8.822;2022-09-13T16:07:38;21.40;96.90
6758;DHT22;3416;53.074;8.822;2022-09-13T16:10:12;21.30;96.80
6758;DHT22;3416;53.074;8.822;2022-09-13T16:12:40;21.20;97.00
6758;DHT22;3416;53.074;8.822;2022-09-13T16:15:08;21.00;97.30
6758;DHT22;3416;53.074;8.822;2022-09-13T16:17:35;20.90;97.30
6758;DHT22;3416;53.074;8.822;2022-09-13T16:20:04;20.80;97.60
6758;DHT22;3416;53.074;8.822;2022-09-13T16:22:32;20.70;98.20
6758;DHT22;3416;53.074;8.822;2022-09-13T16:24:59;20.70;98.30
6758;DHT22;3416;53.074;8.822;2022-09-13T16:27:28;20.80;98.20
6758;DHT22;3416;53.074;8.822;2022-09-13T16:29:55;20.80;98.00
6758;DHT22;3416;53.074;8.822;2022-09-13T16:32:22;20.80;97.50
6758;DHT22;3416;53.074;8.822;2022-09-13T16:34:48;20.70;97.80
6758;DHT22;3416;53.074;8.822;2022-09-13T16:37:17;20.70;97.30
6758;DHT22;3416;53.074;8.822;2022-09-13T16:39:45;20.60;97.60
6758;DHT22;3416;53.074;8.822;2022-09-13T16:42:12;20.50;97.70
6758;DHT22;3416;53.074;8.822;2022-09-13T16:44:41;20.50;97.80
6758;DHT22;3416;53.074;8.822;2022-09-13T16:47:09;20.50;97.80
6758;DHT22;3416;53.074;8.822;2022-09-13T16:49:36;20.50;97.70
6758;DHT22;3416;53.074;8.822;2022-09-13T16:52:03;20.40;97.40
6758;DHT22;3416;53.074;8.822;2022-09-13T16:54:30;20.30;97.40
6758;DHT22;3416;53.074;8.822;2022-09-13T16:57:00;20.20;97.20
6758;DHT22;3416;53.074;8.822;2022-09-13T16:59:28;20.10;97.10
6758;DHT22;3416;53.074;8.822;2022-09-13T17:01:56;20.00;97.40
6758;DHT22;3416;53.074;8.822;2022-09-13T17:04:24;20.00;97.60